createdAt,value
2019-01-12T00:00:23.176Z,975.25
2019-01-12T00:01:23.172Z,975.16
2019-01-12T00:02:23.160Z,975.18
2019-01-12T00:03:23.144Z,975.12
2019-01-12T00:04:23.140Z,975.25
2019-01-12T00:05:23.167Z,975.20
2019-01-12T00:06:23.111Z,975.27
2019-01-12T00:07:23.101Z,975.24
2019-01-12T00:08:23.088Z,975.29
2019-01-12T00:09:23.082Z,975.29
2019-01-12T00:10:23.080Z,975.24
2019-01-12T00:11:23.103Z,975.29
2019-01-12T00:12:23.047Z,975.30
2019-01-12T00:13:23.037Z,975.31
2019-01-12T00:14:23.030Z,975.32
2019-01-12T00:15:23.026Z,975.32
2019-01-12T00:16:23.016Z,975.33
2019-01-12T00:17:23.040Z,975.30
2019-01-12T00:18:22.981Z,975.36
2019-01-12T00:19:22.973Z,975.36
2019-01-12T00:20:22.961Z,975.35
2019-01-12T00:21:22.954Z,975.34
2019-01-12T00:22:22.939Z,975.41
2019-01-12T00:23:22.967Z,975.40
2019-01-12T00:24:22.918Z,975.43
2019-01-12T00:25:22.908Z,975.44
2019-01-12T00:26:22.901Z,975.45
2019-01-12T00:27:22.891Z,975.46
2019-01-12T00:28:22.877Z,975.42
2019-01-12T00:29:22.888Z,975.43
2019-01-12T00:30:33.735Z,975.52
2019-01-12T00:31:22.849Z,975.57
2019-01-12T00:32:22.880Z,975.52
2019-01-12T00:33:22.826Z,975.54
2019-01-12T00:34:22.810Z,975.53
2019-01-12T00:35:22.851Z,975.49
2019-01-12T00:36:22.791Z,975.51
2019-01-12T00:37:22.786Z,975.47
2019-01-12T00:38:22.771Z,975.51
2019-01-12T00:39:22.765Z,975.46
2019-01-12T00:40:22.756Z,975.41
2019-01-12T00:41:22.781Z,975.51
2019-01-12T00:42:22.731Z,975.49
2019-01-12T00:43:22.719Z,975.59
2019-01-12T00:44:22.711Z,975.63
2019-01-12T00:45:22.698Z,975.57
2019-01-12T00:46:22.689Z,975.60
2019-01-12T00:47:22.708Z,975.60
2019-01-12T00:48:22.666Z,975.63
2019-01-12T00:49:22.654Z,975.58
2019-01-12T00:50:22.646Z,975.64
2019-01-12T00:51:22.633Z,975.68
2019-01-12T00:52:22.617Z,975.69
2019-01-12T00:53:22.645Z,975.69
2019-01-12T00:54:22.604Z,975.67
2019-01-12T00:55:22.587Z,975.73
2019-01-12T00:56:22.577Z,975.68
2019-01-12T00:57:22.569Z,975.73
2019-01-12T00:58:22.560Z,975.71
2019-01-12T00:59:22.585Z,975.73
2019-01-12T01:00:22.541Z,975.71
2019-01-12T01:01:32.622Z,975.61
2019-01-12T01:02:22.510Z,975.62
2019-01-12T01:03:22.509Z,975.57
2019-01-12T01:04:22.493Z,975.59
2019-01-12T01:05:22.516Z,975.59
2019-01-12T01:06:22.474Z,975.56
2019-01-12T01:07:22.461Z,975.62
2019-01-12T01:08:22.459Z,975.62
2019-01-12T01:09:22.445Z,975.64
2019-01-12T01:10:22.433Z,975.67
2019-01-12T01:11:22.452Z,975.66
2019-01-12T01:12:22.410Z,975.66
2019-01-12T01:13:22.394Z,975.61
2019-01-12T01:14:22.385Z,975.57
2019-01-12T01:15:22.384Z,975.64
2019-01-12T01:16:22.369Z,975.63
2019-01-12T01:17:22.388Z,975.69
2019-01-12T01:18:22.343Z,975.66
2019-01-12T01:19:22.330Z,975.66
2019-01-12T01:20:22.327Z,975.67
2019-01-12T01:21:22.311Z,975.60
2019-01-12T01:22:22.305Z,975.72
2019-01-12T01:23:22.326Z,975.69
2019-01-12T01:24:22.282Z,975.70
2019-01-12T01:25:22.268Z,975.75
2019-01-12T01:26:22.257Z,975.75
2019-01-12T01:27:22.250Z,975.74
2019-01-12T01:28:22.245Z,975.80
2019-01-12T01:29:22.261Z,975.79
2019-01-12T01:30:22.215Z,975.80
2019-01-12T01:31:22.203Z,975.87
2019-01-12T01:32:32.697Z,975.88
2019-01-12T01:33:27.922Z,975.78
2019-01-12T01:34:23.213Z,975.85
2019-01-12T01:35:22.163Z,975.86
2019-01-12T01:36:22.157Z,975.85
2019-01-12T01:37:22.146Z,975.90
2019-01-12T01:38:22.190Z,975.87
2019-01-12T01:39:22.121Z,975.91
2019-01-12T01:40:22.148Z,975.91
2019-01-12T01:41:22.107Z,975.93
2019-01-12T01:42:22.093Z,975.97
2019-01-12T01:43:22.075Z,975.98
2019-01-12T01:44:22.066Z,975.95
2019-01-12T01:45:22.120Z,975.98
2019-01-12T01:46:22.071Z,976.08
2019-01-12T01:47:22.037Z,975.97
2019-01-12T01:48:22.021Z,976.02
2019-01-12T01:49:22.015Z,976.06
2019-01-12T01:50:22.000Z,976.05
2019-01-12T01:51:21.991Z,976.04
2019-01-12T01:52:22.026Z,976.13
2019-01-12T01:53:21.973Z,976.03
2019-01-12T01:54:21.960Z,976.03
2019-01-12T01:55:21.948Z,976.01
2019-01-12T01:56:21.934Z,976.01
2019-01-12T01:57:21.927Z,976.09
2019-01-12T01:58:22.101Z,976.10
2019-01-12T01:59:21.910Z,976.03
2019-01-12T02:00:21.907Z,976.08
2019-01-12T02:01:21.885Z,976.07
2019-01-12T02:02:21.879Z,976.05
2019-01-12T02:03:32.092Z,976.07
2019-01-12T02:04:21.849Z,976.04
2019-01-12T02:05:21.839Z,976.05
2019-01-12T02:06:21.829Z,976.11
2019-01-12T02:07:21.816Z,976.06
2019-01-12T02:08:21.812Z,976.03
2019-01-12T02:09:21.825Z,976.05
2019-01-12T02:10:21.789Z,976.08
2019-01-12T02:11:21.779Z,976.17
2019-01-12T02:12:21.770Z,976.10
2019-01-12T02:13:21.758Z,976.06
2019-01-12T02:14:21.750Z,976.03
2019-01-12T02:15:21.906Z,976.15
2019-01-12T02:16:21.730Z,976.19
2019-01-12T02:17:21.717Z,976.17
2019-01-12T02:18:21.700Z,976.12
2019-01-12T02:19:21.695Z,976.22
2019-01-12T02:20:23.120Z,976.19
2019-01-12T02:21:21.706Z,976.16
2019-01-12T02:22:21.666Z,976.17
2019-01-12T02:23:21.650Z,976.14
2019-01-12T02:24:21.640Z,976.19
2019-01-12T02:25:21.630Z,976.06
2019-01-12T02:26:21.617Z,976.18
2019-01-12T02:27:21.635Z,976.14
2019-01-12T02:28:21.599Z,976.15
2019-01-12T02:29:21.582Z,976.06
2019-01-12T02:30:21.570Z,976.12
2019-01-12T02:31:21.560Z,976.12
2019-01-12T02:32:21.554Z,976.15
2019-01-12T02:33:21.608Z,976.17
2019-01-12T02:34:31.474Z,976.18
2019-01-12T02:35:21.515Z,976.20
2019-01-12T02:36:21.519Z,976.14
2019-01-12T02:37:21.501Z,976.16
2019-01-12T02:38:21.489Z,976.12
2019-01-12T02:39:21.514Z,976.17
2019-01-12T02:40:21.468Z,976.10
2019-01-12T02:41:21.452Z,976.14
2019-01-12T02:42:21.445Z,976.11
2019-01-12T02:43:21.430Z,976.10
2019-01-12T02:44:21.425Z,976.09
2019-01-12T02:45:21.443Z,976.12
2019-01-12T02:46:21.404Z,976.13
2019-01-12T02:47:21.398Z,976.11
2019-01-12T02:48:21.388Z,976.11
2019-01-12T02:49:21.373Z,976.12
2019-01-12T02:50:21.361Z,976.12
2019-01-12T02:51:21.381Z,976.09
2019-01-12T02:52:21.335Z,976.14
2019-01-12T02:53:21.322Z,976.15
2019-01-12T02:54:21.317Z,976.11
2019-01-12T02:55:21.308Z,976.13
2019-01-12T02:56:21.294Z,976.11
2019-01-12T02:57:21.323Z,976.13
2019-01-12T02:58:21.274Z,976.12
2019-01-12T02:59:21.261Z,976.16
2019-01-12T03:00:21.266Z,976.18
2019-01-12T03:01:21.240Z,976.14
2019-01-12T03:02:21.233Z,976.11
2019-01-12T03:03:21.258Z,976.11
2019-01-12T03:04:21.210Z,976.14
2019-01-12T03:05:31.136Z,976.15
2019-01-12T03:06:21.186Z,976.29
2019-01-12T03:07:21.181Z,976.19
2019-01-12T03:08:21.166Z,976.16
2019-01-12T03:09:21.192Z,976.22
2019-01-12T03:10:21.148Z,976.22
2019-01-12T03:11:21.138Z,976.22
2019-01-12T03:12:21.133Z,976.29
2019-01-12T03:13:21.115Z,976.26
2019-01-12T03:14:21.106Z,976.25
2019-01-12T03:15:21.127Z,976.22
2019-01-12T03:16:21.083Z,976.21
2019-01-12T03:17:21.077Z,976.27
2019-01-12T03:18:21.064Z,976.25
2019-01-12T03:19:21.048Z,976.25
2019-01-12T03:20:21.040Z,976.28
2019-01-12T03:21:21.197Z,976.27
2019-01-12T03:22:21.026Z,976.29
2019-01-12T03:23:21.015Z,976.20
2019-01-12T03:24:21.000Z,976.30
2019-01-12T03:25:20.993Z,976.24
2019-01-12T03:26:20.974Z,976.33
2019-01-12T03:27:21.000Z,976.35
2019-01-12T03:28:20.953Z,976.37
2019-01-12T03:29:20.948Z,976.32
2019-01-12T03:30:20.950Z,976.32
2019-01-12T03:31:20.932Z,976.33
2019-01-12T03:32:20.916Z,976.30
2019-01-12T03:33:21.071Z,976.38
2019-01-12T03:34:20.895Z,976.40
2019-01-12T03:35:20.881Z,976.33
2019-01-12T03:36:31.090Z,976.36
2019-01-12T03:37:20.864Z,976.42
2019-01-12T03:38:20.858Z,976.40
2019-01-12T03:39:20.875Z,976.33
2019-01-12T03:40:20.828Z,976.42
2019-01-12T03:41:20.825Z,976.41
2019-01-12T03:42:20.811Z,976.42
2019-01-12T03:43:20.797Z,976.35
2019-01-12T03:44:20.793Z,976.39
2019-01-12T03:45:20.958Z,976.40
2019-01-12T03:46:20.774Z,976.44
2019-01-12T03:47:20.763Z,976.45
2019-01-12T03:48:20.743Z,976.41
2019-01-12T03:49:20.735Z,976.48
2019-01-12T03:50:20.786Z,976.40
2019-01-12T03:51:20.757Z,976.44
2019-01-12T03:52:20.701Z,976.41
2019-01-12T03:53:20.697Z,976.42
2019-01-12T03:54:20.677Z,976.49
2019-01-12T03:55:25.389Z,976.48
2019-01-12T03:56:21.704Z,976.54
2019-01-12T03:57:20.658Z,976.53
2019-01-12T03:58:20.641Z,976.46
2019-01-12T03:59:20.629Z,976.47
2019-01-12T04:00:20.615Z,976.58
2019-01-12T04:01:20.610Z,976.56
2019-01-12T04:02:20.620Z,976.56
2019-01-12T04:03:20.593Z,976.64
2019-01-12T04:04:20.576Z,976.62
2019-01-12T04:05:20.568Z,976.58
2019-01-12T04:06:20.556Z,976.61
2019-01-12T04:07:30.682Z,976.64
2019-01-12T04:08:20.536Z,976.63
2019-01-12T04:09:20.527Z,976.61
2019-01-12T04:10:20.513Z,976.65
2019-01-12T04:11:20.500Z,976.63
2019-01-12T04:12:20.496Z,976.67
2019-01-12T04:13:20.713Z,976.65
2019-01-12T04:14:20.466Z,976.78
2019-01-12T04:15:20.475Z,976.62
2019-01-12T04:16:20.446Z,976.75
2019-01-12T04:17:20.438Z,976.65
2019-01-12T04:18:20.426Z,976.72
2019-01-12T04:19:20.456Z,976.73
2019-01-12T04:20:20.406Z,976.71
2019-01-12T04:21:20.396Z,976.74
2019-01-12T04:22:20.387Z,976.67
2019-01-12T04:23:20.378Z,976.70
2019-01-12T04:24:20.359Z,976.68
2019-01-12T04:25:20.371Z,976.73
2019-01-12T04:26:20.346Z,976.74
2019-01-12T04:27:20.332Z,976.67
2019-01-12T04:28:20.320Z,976.74
2019-01-12T04:29:20.322Z,976.69
2019-01-12T04:30:20.310Z,976.76
2019-01-12T04:31:20.309Z,976.70
2019-01-12T04:32:20.279Z,976.79
2019-01-12T04:33:20.265Z,976.76
2019-01-12T04:34:20.257Z,976.73
2019-01-12T04:35:20.249Z,976.73
2019-01-12T04:36:20.252Z,976.68
2019-01-12T04:37:20.261Z,976.70
2019-01-12T04:38:30.576Z,976.77
2019-01-12T04:39:20.209Z,976.75
2019-01-12T04:40:20.193Z,976.77
2019-01-12T04:41:20.186Z,976.76
2019-01-12T04:42:20.171Z,976.77
2019-01-12T04:43:20.201Z,976.80
2019-01-12T04:44:20.149Z,976.79
2019-01-12T04:45:20.137Z,976.76
2019-01-12T04:46:20.138Z,976.79
2019-01-12T04:47:20.119Z,976.81
2019-01-12T04:48:20.113Z,976.72
2019-01-12T04:49:20.201Z,976.79
2019-01-12T04:50:20.086Z,976.82
2019-01-12T04:51:20.082Z,976.83
2019-01-12T04:52:20.074Z,976.89
2019-01-12T04:53:20.059Z,976.88
2019-01-12T04:54:20.049Z,976.91
2019-01-12T04:55:20.070Z,976.83
2019-01-12T04:56:20.092Z,976.90
2019-01-12T04:57:20.022Z,976.86
2019-01-12T04:58:20.004Z,976.89
2019-01-12T04:59:19.994Z,976.88
2019-01-12T05:00:19.988Z,976.97
2019-01-12T05:01:20.009Z,976.93
2019-01-12T05:02:19.961Z,976.95
2019-01-12T05:03:19.953Z,976.92
2019-01-12T05:04:19.939Z,976.93
2019-01-12T05:05:19.931Z,976.97
2019-01-12T05:06:19.931Z,977.03
2019-01-12T05:07:19.951Z,977.01
2019-01-12T05:08:19.900Z,976.95
2019-01-12T05:09:30.101Z,977.02
2019-01-12T05:10:19.883Z,977.05
2019-01-12T05:11:19.870Z,977.07
2019-01-12T05:12:19.854Z,977.02
2019-01-12T05:13:19.880Z,977.04
2019-01-12T05:14:19.846Z,977.06
2019-01-12T05:15:19.828Z,977.10
2019-01-12T05:16:19.816Z,977.04
2019-01-12T05:17:19.803Z,977.03
2019-01-12T05:18:19.799Z,977.13
2019-01-12T05:19:19.957Z,977.03
2019-01-12T05:20:19.772Z,977.14
2019-01-12T05:21:19.760Z,977.16
2019-01-12T05:22:19.759Z,977.12
2019-01-12T05:23:19.744Z,977.12
2019-01-12T05:24:19.729Z,977.11
2019-01-12T05:25:19.759Z,977.13
2019-01-12T05:26:19.705Z,977.13
2019-01-12T05:27:19.696Z,977.18
2019-01-12T05:28:19.690Z,977.14
2019-01-12T05:29:19.680Z,977.07
2019-01-12T05:30:19.662Z,977.11
2019-01-12T05:31:19.704Z,977.13
2019-01-12T05:32:19.641Z,977.13
2019-01-12T05:33:19.634Z,977.16
2019-01-12T05:34:19.628Z,977.19
2019-01-12T05:35:19.617Z,977.20
2019-01-12T05:36:19.603Z,977.21
2019-01-12T05:37:19.624Z,977.19
2019-01-12T05:38:19.583Z,977.20
2019-01-12T05:39:19.569Z,977.21
2019-01-12T05:40:30.087Z,977.28
2019-01-12T05:41:19.552Z,977.21
2019-01-12T05:42:19.541Z,977.23
2019-01-12T05:43:19.566Z,977.20
2019-01-12T05:44:19.520Z,977.27
2019-01-12T05:45:19.514Z,977.21
2019-01-12T05:46:19.499Z,977.27
2019-01-12T05:47:19.484Z,977.25
2019-01-12T05:48:19.499Z,977.26
2019-01-12T05:49:19.505Z,977.27
2019-01-12T05:50:19.462Z,977.30
2019-01-12T05:51:19.442Z,977.30
2019-01-12T05:52:19.432Z,977.28
2019-01-12T05:53:19.435Z,977.25
2019-01-12T05:54:19.419Z,977.32
2019-01-12T05:55:19.443Z,977.27
2019-01-12T05:56:19.393Z,977.32
2019-01-12T05:57:19.386Z,977.31
2019-01-12T05:58:19.370Z,977.38
2019-01-12T05:59:19.366Z,977.36
2019-01-12T06:00:19.350Z,977.37
2019-01-12T06:01:19.516Z,977.32
2019-01-12T06:02:19.333Z,977.33
2019-01-12T06:03:19.317Z,977.40
2019-01-12T06:04:19.312Z,977.36
2019-01-12T06:05:19.297Z,977.40
2019-01-12T06:06:19.284Z,977.42
2019-01-12T06:07:19.308Z,977.37
2019-01-12T06:08:19.261Z,977.48
2019-01-12T06:09:19.259Z,977.37
2019-01-12T06:10:19.245Z,977.44
2019-01-12T06:11:29.105Z,977.44
2019-01-12T06:12:19.219Z,977.47
2019-01-12T06:13:19.253Z,977.43
2019-01-12T06:14:19.206Z,977.51
2019-01-12T06:15:19.195Z,977.51
2019-01-12T06:16:19.188Z,977.47
2019-01-12T06:17:19.172Z,977.49
2019-01-12T06:18:19.168Z,977.51
2019-01-12T06:19:19.235Z,977.58
2019-01-12T06:20:19.147Z,977.52
2019-01-12T06:21:19.131Z,977.59
2019-01-12T06:22:19.116Z,977.59
2019-01-12T06:23:19.112Z,977.53
2019-01-12T06:24:19.097Z,977.57
2019-01-12T06:25:19.126Z,977.64
2019-01-12T06:26:19.074Z,977.58
2019-01-12T06:27:19.063Z,977.54
2019-01-12T06:28:19.054Z,977.57
2019-01-12T06:29:19.046Z,977.55
2019-01-12T06:30:19.029Z,977.55
2019-01-12T06:31:19.070Z,977.59
2019-01-12T06:32:19.010Z,977.57
2019-01-12T06:33:19.001Z,977.59
2019-01-12T06:34:18.994Z,977.57
2019-01-12T06:35:18.977Z,977.57
2019-01-12T06:36:18.972Z,977.61
2019-01-12T06:37:19.011Z,977.53
2019-01-12T06:38:18.950Z,977.54
2019-01-12T06:39:18.934Z,977.58
2019-01-12T06:40:18.929Z,977.52
2019-01-12T06:41:18.915Z,977.53
2019-01-12T06:42:29.269Z,977.59
2019-01-12T06:43:18.893Z,977.53
2019-01-12T06:44:18.887Z,977.57
2019-01-12T06:45:18.876Z,977.60
2019-01-12T06:46:18.866Z,977.60
2019-01-12T06:47:18.849Z,977.60
2019-01-12T06:48:18.881Z,977.61
2019-01-12T06:49:18.850Z,977.62
2019-01-12T06:50:18.822Z,977.64
2019-01-12T06:51:18.811Z,977.69
2019-01-12T06:52:18.804Z,977.65
2019-01-12T06:53:18.785Z,977.61
2019-01-12T06:54:18.823Z,977.70
2019-01-12T06:55:18.771Z,977.69
2019-01-12T06:56:18.760Z,977.60
2019-01-12T06:57:18.742Z,977.65
2019-01-12T06:58:18.736Z,977.56
2019-01-12T06:59:18.731Z,977.66
2019-01-12T07:00:18.751Z,977.60
2019-01-12T07:01:18.715Z,977.63
2019-01-12T07:02:18.691Z,977.66
2019-01-12T07:03:18.686Z,977.68
2019-01-12T07:04:18.672Z,977.70
2019-01-12T07:05:18.658Z,977.65
2019-01-12T07:06:18.669Z,977.71
2019-01-12T07:07:18.645Z,977.74
2019-01-12T07:08:18.678Z,977.67
2019-01-12T07:09:18.622Z,977.64
2019-01-12T07:10:18.604Z,977.66
2019-01-12T07:11:18.596Z,977.64
2019-01-12T07:12:18.623Z,977.68
2019-01-12T07:13:28.547Z,977.62
2019-01-12T07:14:18.568Z,977.70
2019-01-12T07:15:18.551Z,977.65
2019-01-12T07:16:18.548Z,977.67
2019-01-12T07:17:18.533Z,977.67
2019-01-12T07:18:18.567Z,977.70
2019-01-12T07:19:18.509Z,977.68
2019-01-12T07:20:18.499Z,977.69
2019-01-12T07:21:18.495Z,977.77
2019-01-12T07:22:18.480Z,977.73
2019-01-12T07:23:18.470Z,977.71
2019-01-12T07:24:18.498Z,977.71
2019-01-12T07:25:18.453Z,977.71
2019-01-12T07:26:18.447Z,977.73
2019-01-12T07:27:18.431Z,977.74
2019-01-12T07:28:18.419Z,977.75
2019-01-12T07:29:18.413Z,977.80
2019-01-12T07:30:18.566Z,977.78
2019-01-12T07:31:18.385Z,977.78
2019-01-12T07:32:18.384Z,977.82
2019-01-12T07:33:18.361Z,977.86
2019-01-12T07:34:18.354Z,977.84
2019-01-12T07:35:18.342Z,977.78
2019-01-12T07:36:18.383Z,977.87
2019-01-12T07:37:18.328Z,977.82
2019-01-12T07:38:18.324Z,977.88
2019-01-12T07:39:18.300Z,977.86
2019-01-12T07:40:18.291Z,977.80
2019-01-12T07:41:18.279Z,977.78
2019-01-12T07:42:18.288Z,977.76
2019-01-12T07:43:18.256Z,977.81
2019-01-12T07:44:30.105Z,977.79
2019-01-12T07:45:18.239Z,977.79
2019-01-12T07:46:18.234Z,977.76
2019-01-12T07:47:18.218Z,977.78
2019-01-12T07:48:18.241Z,977.76
2019-01-12T07:49:18.196Z,977.79
2019-01-12T07:50:18.185Z,977.78
2019-01-12T07:51:18.177Z,977.84
2019-01-12T07:52:18.216Z,977.80
2019-01-12T07:53:18.154Z,977.79
2019-01-12T07:54:18.181Z,977.80
2019-01-12T07:55:18.133Z,977.81
2019-01-12T07:56:24.243Z,977.83
2019-01-12T07:57:19.112Z,977.83
2019-01-12T07:58:18.100Z,977.89
2019-01-12T07:59:18.092Z,977.80
2019-01-12T08:00:18.133Z,977.83
2019-01-12T08:01:18.072Z,977.83
2019-01-12T08:02:18.062Z,977.85
2019-01-12T08:03:18.045Z,977.86
2019-01-12T08:04:18.036Z,977.84
2019-01-12T08:05:18.034Z,977.89
2019-01-12T08:06:18.186Z,977.83
2019-01-12T08:07:18.001Z,977.80
2019-01-12T08:08:17.995Z,977.86
2019-01-12T08:09:17.981Z,977.83
2019-01-12T08:10:17.973Z,977.81
2019-01-12T08:11:17.970Z,977.79
2019-01-12T08:12:18.119Z,977.80
2019-01-12T08:13:17.938Z,977.89
2019-01-12T08:14:18.004Z,977.88
2019-01-12T08:15:28.417Z,977.87
2019-01-12T08:16:17.909Z,977.88
2019-01-12T08:17:17.905Z,977.80
2019-01-12T08:18:17.925Z,977.84
2019-01-12T08:19:17.882Z,977.87
2019-01-12T08:20:17.870Z,977.86
2019-01-12T08:21:17.867Z,977.81
2019-01-12T08:22:17.844Z,977.81
2019-01-12T08:23:17.832Z,977.81
2019-01-12T08:24:17.868Z,977.87
2019-01-12T08:25:17.816Z,977.80
2019-01-12T08:26:17.808Z,977.86
2019-01-12T08:27:17.793Z,977.82
2019-01-12T08:28:17.780Z,977.88
2019-01-12T08:29:17.776Z,977.90
2019-01-12T08:30:17.805Z,977.89
2019-01-12T08:31:17.750Z,977.86
2019-01-12T08:32:17.741Z,977.87
2019-01-12T08:33:17.733Z,977.81
2019-01-12T08:34:17.725Z,977.84
2019-01-12T08:35:17.719Z,977.83
2019-01-12T08:36:17.735Z,977.82
2019-01-12T08:37:17.686Z,977.86
2019-01-12T08:38:17.675Z,977.79
2019-01-12T08:39:17.671Z,977.85
2019-01-12T08:40:17.663Z,977.86
2019-01-12T08:41:17.646Z,977.86
2019-01-12T08:42:17.672Z,977.84
2019-01-12T08:43:17.630Z,977.86
2019-01-12T08:44:17.613Z,977.83
2019-01-12T08:45:17.601Z,977.90
2019-01-12T08:46:27.871Z,977.87
2019-01-12T08:47:17.579Z,977.86
2019-01-12T08:48:17.613Z,977.88
2019-01-12T08:49:17.561Z,977.92
2019-01-12T08:50:17.567Z,977.91
2019-01-12T08:51:17.541Z,977.91
2019-01-12T08:52:17.532Z,977.91
2019-01-12T08:53:17.525Z,977.89
2019-01-12T08:54:17.546Z,977.86
2019-01-12T08:55:17.497Z,977.85
2019-01-12T08:56:17.492Z,977.85
2019-01-12T08:57:17.479Z,977.82
2019-01-12T08:58:17.472Z,977.83
2019-01-12T08:59:17.459Z,977.84
2019-01-12T09:00:17.481Z,977.78
2019-01-12T09:01:17.438Z,977.83
2019-01-12T09:02:17.427Z,977.82
2019-01-12T09:03:17.418Z,977.82
2019-01-12T09:04:17.407Z,977.90
2019-01-12T09:05:17.391Z,977.86
2019-01-12T09:06:17.420Z,977.87
2019-01-12T09:07:17.373Z,977.89
2019-01-12T09:08:17.360Z,977.91
2019-01-12T09:09:17.353Z,977.88
2019-01-12T09:10:17.349Z,977.89
2019-01-12T09:11:17.330Z,977.91
2019-01-12T09:12:17.335Z,977.91
2019-01-12T09:13:17.310Z,977.88
2019-01-12T09:14:17.299Z,977.87
2019-01-12T09:15:17.300Z,977.89
2019-01-12T09:16:17.281Z,977.90
2019-01-12T09:17:27.354Z,977.81
2019-01-12T09:18:17.252Z,977.86
2019-01-12T09:19:17.250Z,977.87
2019-01-12T09:20:17.240Z,977.92
2019-01-12T09:21:17.225Z,977.92
2019-01-12T09:22:17.211Z,977.86
2019-01-12T09:23:17.238Z,977.88
2019-01-12T09:24:17.197Z,977.88
2019-01-12T09:25:17.183Z,977.87
2019-01-12T09:26:17.173Z,977.93
2019-01-12T09:27:17.162Z,977.89
2019-01-12T09:28:17.148Z,977.86
2019-01-12T09:29:17.176Z,977.89
2019-01-12T09:30:17.135Z,977.88
2019-01-12T09:31:17.116Z,977.91
2019-01-12T09:32:17.108Z,977.84
2019-01-12T09:33:17.095Z,977.86
2019-01-12T09:34:17.084Z,977.89
2019-01-12T09:35:17.115Z,977.86
2019-01-12T09:36:17.064Z,977.94
2019-01-12T09:37:17.054Z,977.88
2019-01-12T09:38:17.042Z,977.82
2019-01-12T09:39:17.033Z,977.87
2019-01-12T09:40:17.024Z,977.88
2019-01-12T09:41:17.051Z,977.85
2019-01-12T09:42:17.003Z,977.77
2019-01-12T09:43:16.989Z,977.84
2019-01-12T09:44:16.975Z,977.72
2019-01-12T09:45:16.986Z,977.80
2019-01-12T09:46:16.962Z,977.76
2019-01-12T09:47:17.117Z,977.76
2019-01-12T09:48:27.366Z,977.74
2019-01-12T09:49:16.922Z,977.77
2019-01-12T09:50:16.911Z,977.73
2019-01-12T09:51:16.903Z,977.71
2019-01-12T09:52:16.899Z,977.78
2019-01-12T09:53:16.923Z,977.73
2019-01-12T09:54:16.872Z,977.69
2019-01-12T09:55:16.863Z,977.70
2019-01-12T09:56:16.850Z,977.78
2019-01-12T09:57:16.843Z,977.81
2019-01-12T09:58:16.833Z,977.77
2019-01-12T09:59:16.863Z,977.77
2019-01-12T10:00:16.816Z,977.83
2019-01-12T10:01:16.804Z,977.73
2019-01-12T10:02:16.791Z,977.82
2019-01-12T10:03:16.773Z,977.81
2019-01-12T10:04:16.762Z,977.76
2019-01-12T10:05:16.794Z,977.81
2019-01-12T10:06:16.741Z,977.83
2019-01-12T10:07:16.735Z,977.88
2019-01-12T10:08:16.719Z,977.99
2019-01-12T10:09:16.711Z,978.12
2019-01-12T10:10:16.703Z,978.13
2019-01-12T10:11:16.730Z,978.02
2019-01-12T10:12:16.678Z,978.04
2019-01-12T10:13:16.670Z,977.95
2019-01-12T10:14:16.659Z,977.97
2019-01-12T10:15:16.653Z,977.94
2019-01-12T10:16:16.639Z,977.87
2019-01-12T10:17:16.797Z,977.90
2019-01-12T10:18:16.613Z,977.85
2019-01-12T10:19:27.757Z,977.87
2019-01-12T10:20:16.593Z,977.80
2019-01-12T10:21:16.579Z,977.87
2019-01-12T10:22:17.942Z,977.84
2019-01-12T10:23:16.660Z,977.73
2019-01-12T10:24:16.549Z,977.77
2019-01-12T10:25:16.531Z,977.80
2019-01-12T10:26:16.547Z,977.86
2019-01-12T10:27:16.522Z,977.80
2019-01-12T10:28:16.505Z,977.75
2019-01-12T10:29:16.540Z,977.76
2019-01-12T10:30:16.489Z,977.79
2019-01-12T10:31:16.475Z,977.83
2019-01-12T10:32:16.459Z,977.80
2019-01-12T10:33:16.451Z,977.79
2019-01-12T10:34:16.439Z,977.79
2019-01-12T10:35:16.442Z,977.86
2019-01-12T10:36:16.415Z,977.77
2019-01-12T10:37:16.404Z,977.77
2019-01-12T10:38:16.394Z,977.79
2019-01-12T10:39:17.964Z,977.71
2019-01-12T10:40:16.373Z,977.72
2019-01-12T10:41:16.405Z,977.65
2019-01-12T10:42:16.350Z,977.71
2019-01-12T10:43:16.363Z,977.68
2019-01-12T10:44:16.331Z,977.71
2019-01-12T10:45:16.321Z,977.69
2019-01-12T10:46:16.306Z,977.72
2019-01-12T10:47:16.355Z,977.72
2019-01-12T10:48:16.291Z,977.68
2019-01-12T10:49:16.282Z,977.71
2019-01-12T10:50:26.307Z,977.82
2019-01-12T10:51:16.253Z,977.76
2019-01-12T10:52:16.240Z,977.76
2019-01-12T10:53:16.407Z,977.81
2019-01-12T10:54:16.218Z,977.79
2019-01-12T10:55:16.213Z,977.73
2019-01-12T10:56:16.202Z,977.67
2019-01-12T10:57:16.189Z,977.80
2019-01-12T10:58:16.180Z,977.77
2019-01-12T10:59:16.187Z,977.75
2019-01-12T11:00:16.160Z,977.78
2019-01-12T11:01:16.149Z,977.72
2019-01-12T11:02:16.143Z,977.71
2019-01-12T11:03:16.123Z,977.68
2019-01-12T11:04:16.115Z,977.67
2019-01-12T11:05:16.135Z,977.67
2019-01-12T11:06:16.106Z,977.64
2019-01-12T11:07:16.079Z,977.67
2019-01-12T11:08:16.078Z,977.67
2019-01-12T11:09:16.060Z,977.74
2019-01-12T11:10:16.054Z,977.60
2019-01-12T11:11:16.086Z,977.37
2019-01-12T11:12:16.030Z,977.43
2019-01-12T11:13:16.019Z,977.57
2019-01-12T11:14:16.001Z,977.65
2019-01-12T11:15:15.989Z,977.68
2019-01-12T11:16:15.983Z,977.64
2019-01-12T11:17:16.006Z,977.72
2019-01-12T11:18:15.970Z,977.66
2019-01-12T11:19:15.946Z,977.61
2019-01-12T11:20:15.991Z,977.61
2019-01-12T11:21:28.104Z,977.54
2019-01-12T11:22:15.971Z,977.57
2019-01-12T11:23:15.936Z,977.64
2019-01-12T11:24:15.896Z,977.61
2019-01-12T11:25:15.879Z,977.64
2019-01-12T11:26:15.868Z,977.64
2019-01-12T11:27:15.863Z,977.61
2019-01-12T11:28:15.862Z,977.59
2019-01-12T11:29:15.927Z,977.58
2019-01-12T11:30:15.825Z,977.66
2019-01-12T11:31:19.792Z,977.59
2019-01-12T11:32:16.383Z,977.60
2019-01-12T11:33:15.791Z,977.59
2019-01-12T11:34:15.797Z,977.54
2019-01-12T11:35:15.805Z,977.61
2019-01-12T11:36:15.767Z,977.52
2019-01-12T11:37:15.757Z,977.61
2019-01-12T11:38:15.750Z,977.62
2019-01-12T11:39:15.730Z,977.59
2019-01-12T11:40:15.720Z,977.57
2019-01-12T11:41:15.746Z,977.59
2019-01-12T11:42:15.693Z,977.57
2019-01-12T11:43:15.689Z,977.61
2019-01-12T11:44:15.677Z,977.61
2019-01-12T11:45:15.671Z,977.58
2019-01-12T11:46:15.657Z,977.62
2019-01-12T11:47:15.679Z,977.59
2019-01-12T11:48:15.641Z,977.51
2019-01-12T11:49:15.639Z,977.59
2019-01-12T11:50:15.654Z,977.65
2019-01-12T11:51:15.604Z,977.57
2019-01-12T11:52:26.954Z,977.58
2019-01-12T11:53:15.583Z,977.51
2019-01-12T11:54:15.565Z,977.47
2019-01-12T11:55:15.558Z,977.48
2019-01-12T11:56:15.549Z,977.60
2019-01-12T11:57:19.188Z,977.64
2019-01-12T11:58:15.561Z,977.65
2019-01-12T11:59:15.510Z,977.66
2019-01-12T12:00:15.502Z,977.65
2019-01-12T12:01:15.492Z,977.62
2019-01-12T12:02:15.486Z,977.58
2019-01-12T12:03:15.475Z,977.52
2019-01-12T12:04:15.494Z,977.43
2019-01-12T12:05:15.460Z,977.46
2019-01-12T12:06:15.443Z,977.56
2019-01-12T12:07:15.426Z,977.58
2019-01-12T12:08:15.414Z,977.57
2019-01-12T12:09:15.404Z,977.57
2019-01-12T12:10:15.697Z,977.55
2019-01-12T12:11:15.381Z,977.47
2019-01-12T12:12:15.468Z,977.49
2019-01-12T12:13:15.362Z,977.54
2019-01-12T12:14:15.906Z,977.45
2019-01-12T12:15:15.338Z,977.45
2019-01-12T12:16:15.359Z,977.45
2019-01-12T12:17:15.316Z,977.51
2019-01-12T12:18:15.303Z,977.59
2019-01-12T12:19:15.289Z,977.61
2019-01-12T12:20:15.278Z,977.64
2019-01-12T12:21:15.267Z,977.68
2019-01-12T12:22:15.337Z,977.66
2019-01-12T12:23:25.296Z,977.66
2019-01-12T12:24:15.239Z,977.67
2019-01-12T12:25:15.231Z,977.65
2019-01-12T12:26:15.214Z,977.76
2019-01-12T12:27:15.200Z,977.81
2019-01-12T12:28:15.255Z,977.83